Terminal Aerodrome Forecast
Issued by NWS Shreveport, LA

Home | Current Version | Previous Version | Text Only | Print | Product List | Glossary On
Versions: 1 2 3 4 5 6 7 8 9 10 11 12 13 14 15 16 17 18 19 20 21 22 23 24 25 26
150
FTUS44 KSHV 252358
TAFTXK
TAF
KTXK 252358Z 2600/2624 15008KT P6SM BKN021 BKN026 OVC035
     FM260400 03004KT 6SM BR OVC250
      TEMPO 2608/2612 4SM BR OVC005
     FM261500 07004KT P6SM SCT250=

USA.gov is the U.S. government's official web portal to all federal, state and local government web resources and services.